sensor_id;sensor_type;location;lat;lon;timestamp;temperature;humidity
64034;SHT31;50280;49.864;8.638;2022-08-01T00:02:49;23.85;55.17
64034;SHT31;50280;49.864;8.638;2022-08-01T00:05:41;23.84;55.26
64034;SHT31;50280;49.864;8.638;2022-08-01T00:08:33;23.81;55.33
64034;SHT31;50280;49.864;8.638;2022-08-01T00:11:24;23.77;55.56
64034;SHT31;50280;49.864;8.638;2022-08-01T00:14:15;23.71;55.69
64034;SHT31;50280;49.864;8.638;2022-08-01T00:17:06;23.62;55.88
64034;SHT31;50280;49.864;8.638;2022-08-01T00:19:58;23.57;56.15
64034;SHT31;50280;49.864;8.638;2022-08-01T00:22:50;23.46;56.41
64034;SHT31;50280;49.864;8.638;2022-08-01T00:25:41;23.40;56.73
64034;SHT31;50280;49.864;8.638;2022-08-01T00:28:33;23.36;56.91
64034;SHT31;50280;49.864;8.638;2022-08-01T00:31:24;23.27;57.15
64034;SHT31;50280;49.864;8.638;2022-08-01T00:34:15;23.24;57.25
64034;SHT31;50280;49.864;8.638;2022-08-01T00:37:06;23.24;57.34
64034;SHT31;50280;49.864;8.638;2022-08-01T00:39:59;23.23;57.51
64034;SHT31;50280;49.864;8.638;2022-08-01T00:42:50;23.23;57.57
64034;SHT31;50280;49.864;8.638;2022-08-01T00:45:41;23.17;57.72
64034;SHT31;50280;49.864;8.638;2022-08-01T00:48:33;23.16;57.87
64034;SHT31;50280;49.864;8.638;2022-08-01T00:51:25;23.13;57.91
64034;SHT31;50280;49.864;8.638;2022-08-01T00:54:17;23.13;58.03
64034;SHT31;50280;49.864;8.638;2022-08-01T00:57:10;23.14;57.93
64034;SHT31;50280;49.864;8.638;2022-08-01T01:00:05;23.17;57.81
64034;SHT31;50280;49.864;8.638;2022-08-01T01:02:58;23.17;57.84
64034;SHT31;50280;49.864;8.638;2022-08-01T01:05:56;23.14;58.02
64034;SHT31;50280;49.864;8.638;2022-08-01T01:12:31;23.05;58.41
64034;SHT31;50280;49.864;8.638;2022-08-01T01:15:38;22.99;58.67
64034;SHT31;50280;49.864;8.638;2022-08-01T01:18:37;22.96;58.82
64034;SHT31;50280;49.864;8.638;2022-08-01T01:21:47;22.92;58.95
64034;SHT31;50280;49.864;8.638;2022-08-01T01:25:29;22.89;59.18
64034;SHT31;50280;49.864;8.638;2022-08-01T01:28:34;22.86;59.26
64034;SHT31;50280;49.864;8.638;2022-08-01T01:31:41;22.82;59.42
64034;SHT31;50280;49.864;8.638;2022-08-01T01:34:40;22.82;59.56
64034;SHT31;50280;49.864;8.638;2022-08-01T01:37:38;22.78;59.73
64034;SHT31;50280;49.864;8.638;2022-08-01T01:40:33;22.69;60.00
64034;SHT31;50280;49.864;8.638;2022-08-01T01:43:25;22.67;60.14
64034;SHT31;50280;49.864;8.638;2022-08-01T01:46:22;22.64;60.29
64034;SHT31;50280;49.864;8.638;2022-08-01T01:49:19;22.58;60.46
64034;SHT31;50280;49.864;8.638;2022-08-01T01:52:16;22.54;60.63
64034;SHT31;50280;49.864;8.638;2022-08-01T01:55:10;22.48;60.86
64034;SHT31;50280;49.864;8.638;2022-08-01T01:58:05;22.44;61.01
64034;SHT31;50280;49.864;8.638;2022-08-01T02:01:04;22.39;61.13
64034;SHT31;50280;49.864;8.638;2022-08-01T02:03:58;22.34;61.24
64034;SHT31;50280;49.864;8.638;2022-08-01T02:06:54;22.32;61.40
64034;SHT31;50280;49.864;8.638;2022-08-01T02:09:48;22.27;61.52
64034;SHT31;50280;49.864;8.638;2022-08-01T02:12:44;22.23;61.70
64034;SHT31;50280;49.864;8.638;2022-08-01T02:15:40;22.16;61.95
64034;SHT31;50280;49.864;8.638;2022-08-01T02:18:31;22.07;62.14
64034;SHT31;50280;49.864;8.638;2022-08-01T02:21:27;22.06;62.36
64034;SHT31;50280;49.864;8.638;2022-08-01T02:24:31;21.99;62.52
64034;SHT31;50280;49.864;8.638;2022-08-01T02:27:34;22.00;62.62
64034;SHT31;50280;49.864;8.638;2022-08-01T02:30:40;21.93;62.69
64034;SHT31;50280;49.864;8.638;2022-08-01T02:33:38;21.90;62.89
64034;SHT31;50280;49.864;8.638;2022-08-01T02:36:36;21.85;63.04
64034;SHT31;50280;49.864;8.638;2022-08-01T02:39:31;21.81;63.21
64034;SHT31;50280;49.864;8.638;2022-08-01T02:42:26;21.81;63.27
64034;SHT31;50280;49.864;8.638;2022-08-01T02:45:23;21.78;63.34
64034;SHT31;50280;49.864;8.638;2022-08-01T02:48:18;21.74;63.53
64034;SHT31;50280;49.864;8.638;2022-08-01T02:51:14;21.74;63.68
64034;SHT31;50280;49.864;8.638;2022-08-01T02:54:08;21.72;63.70
64034;SHT31;50280;49.864;8.638;2022-08-01T02:57:05;21.72;63.65
64034;SHT31;50280;49.864;8.638;2022-08-01T02:59:59;21.72;63.76
64034;SHT31;50280;49.864;8.638;2022-08-01T03:02:52;21.72;63.77
64034;SHT31;50280;49.864;8.638;2022-08-01T03:05:47;21.74;63.77
64034;SHT31;50280;49.864;8.638;2022-08-01T03:08:39;21.74;63.63
64034;SHT31;50280;49.864;8.638;2022-08-01T03:11:33;21.74;63.66
64034;SHT31;50280;49.864;8.638;2022-08-01T03:14:33;21.75;63.59
64034;SHT31;50280;49.864;8.638;2022-08-01T03:17:29;21.72;63.67
64034;SHT31;50280;49.864;8.638;2022-08-01T03:20:23;21.71;63.65
64034;SHT31;50280;49.864;8.638;2022-08-01T03:23:18;21.69;63.84
64034;SHT31;50280;49.864;8.638;2022-08-01T03:26:13;21.71;63.68
64034;SHT31;50280;49.864;8.638;2022-08-01T03:29:06;21.69;63.73
64034;SHT31;50280;49.864;8.638;2022-08-01T03:32:08;21.69;63.72
64034;SHT31;50280;49.864;8.638;2022-08-01T03:35:02;21.64;63.94
64034;SHT31;50280;49.864;8.638;2022-08-01T03:37:55;21.59;64.08
64034;SHT31;50280;49.864;8.638;2022-08-01T03:40:53;21.54;64.30
64034;SHT31;50280;49.864;8.638;2022-08-01T03:43:56;21.47;64.52
64034;SHT31;50280;49.864;8.638;2022-08-01T03:46:59;21.40;64.68
64034;SHT31;50280;49.864;8.638;2022-08-01T03:49:57;21.33;65.06
64034;SHT31;50280;49.864;8.638;2022-08-01T03:52:53;21.27;65.18
64034;SHT31;50280;49.864;8.638;2022-08-01T03:55:49;21.23;65.33
64034;SHT31;50280;49.864;8.638;2022-08-01T03:58:43;21.17;65.47
64034;SHT31;50280;49.864;8.638;2022-08-01T04:01:36;21.13;65.62
64034;SHT31;50280;49.864;8.638;2022-08-01T04:04:28;21.09;65.69
64034;SHT31;50280;49.864;8.638;2022-08-01T04:07:24;21.06;65.80
64034;SHT31;50280;49.864;8.638;2022-08-01T04:10:18;21.04;65.96
64034;SHT31;50280;49.864;8.638;2022-08-01T04:13:09;21.03;66.12
64034;SHT31;50280;49.864;8.638;2022-08-01T04:16:01;21.03;66.10
64034;SHT31;50280;49.864;8.638;2022-08-01T04:18:52;21.02;66.17
64034;SHT31;50280;49.864;8.638;2022-08-01T04:21:43;21.03;66.06
64034;SHT31;50280;49.864;8.638;2022-08-01T04:24:36;21.04;65.96
64034;SHT31;50280;49.864;8.638;2022-08-01T04:27:31;20.99;66.15
64034;SHT31;50280;49.864;8.638;2022-08-01T04:31:15;20.95;66.40
64034;SHT31;50280;49.864;8.638;2022-08-01T04:34:11;20.90;66.55
64034;SHT31;50280;49.864;8.638;2022-08-01T04:37:09;20.85;66.75
64034;SHT31;50280;49.864;8.638;2022-08-01T04:40:06;20.86;66.79
64034;SHT31;50280;49.864;8.638;2022-08-01T04:43:00;20.81;67.01
64034;SHT31;50280;49.864;8.638;2022-08-01T04:45:51;20.81;67.20
64034;SHT31;50280;49.864;8.638;2022-08-01T04:48:45;20.83;67.01
64034;SHT31;50280;49.864;8.638;2022-08-01T04:51:49;20.83;66.99
64034;SHT31;50280;49.864;8.638;2022-08-01T04:54:41;20.83;66.93
64034;SHT31;50280;49.864;8.638;2022-08-01T04:57:36;20.86;66.95
64034;SHT31;50280;49.864;8.638;2022-08-01T05:00:31;20.86;67.07
64034;SHT31;50280;49.864;8.638;2022-08-01T05:03:22;20.85;67.16
64034;SHT31;50280;49.864;8.638;2022-08-01T05:06:13;20.78;67.27
64034;SHT31;50280;49.864;8.638;2022-08-01T05:09:04;20.75;67.44
64034;SHT31;50280;49.864;8.638;2022-08-01T05:11:56;20.78;67.38
64034;SHT31;50280;49.864;8.638;2022-08-01T05:14:48;20.79;67.40
64034;SHT31;50280;49.864;8.638;2022-08-01T05:17:39;20.82;67.15
64034;SHT31;50280;49.864;8.638;2022-08-01T05:20:30;20.85;67.02
64034;SHT31;50280;49.864;8.638;2022-08-01T05:23:22;20.88;67.01
64034;SHT31;50280;49.864;8.638;2022-08-01T05:26:13;20.89;67.10
64034;SHT31;50280;49.864;8.638;2022-08-01T05:29:04;20.93;67.13
64034;SHT31;50280;49.864;8.638;2022-08-01T05:31:57;20.96;67.07
64034;SHT31;50280;49.864;8.638;2022-08-01T05:34:48;20.96;66.84
64034;SHT31;50280;49.864;8.638;2022-08-01T05:37:39;21.00;66.91
64034;SHT31;50280;49.864;8.638;2022-08-01T05:40:30;21.03;66.77
64034;SHT31;50280;49.864;8.638;2022-08-01T05:43:22;21.03;66.75
64034;SHT31;50280;49.864;8.638;2022-08-01T05:46:13;21.03;66.80
64034;SHT31;50280;49.864;8.638;2022-08-01T05:49:05;21.03;66.87
64034;SHT31;50280;49.864;8.638;2022-08-01T05:51:56;21.09;66.73
64034;SHT31;50280;49.864;8.638;2022-08-01T05:54:48;21.17;66.56
64034;SHT31;50280;49.864;8.638;2022-08-01T05:57:39;21.24;66.38
64034;SHT31;50280;49.864;8.638;2022-08-01T06:00:30;21.33;66.18
64034;SHT31;50280;49.864;8.638;2022-08-01T06:03:21;21.35;66.07
64034;SHT31;50280;49.864;8.638;2022-08-01T06:06:14;21.47;65.89
64034;SHT31;50280;49.864;8.638;2022-08-01T06:09:05;21.55;65.57
64034;SHT31;50280;49.864;8.638;2022-08-01T06:11:56;21.62;65.30
64034;SHT31;50280;49.864;8.638;2022-08-01T06:14:47;21.62;65.28
64034;SHT31;50280;49.864;8.638;2022-08-01T06:17:38;21.64;65.42
64034;SHT31;50280;49.864;8.638;2022-08-01T06:20:29;21.61;65.54
64034;SHT31;50280;49.864;8.638;2022-08-01T06:23:22;21.61;65.69
64034;SHT31;50280;49.864;8.638;2022-08-01T06:26:13;21.64;65.61
64034;SHT31;50280;49.864;8.638;2022-08-01T06:29:07;21.69;65.46
64034;SHT31;50280;49.864;8.638;2022-08-01T06:31:58;21.77;65.22
64034;SHT31;50280;49.864;8.638;2022-08-01T06:34:49;21.83;65.26
64034;SHT31;50280;49.864;8.638;2022-08-01T06:37:41;22.00;65.06
64034;SHT31;50280;49.864;8.638;2022-08-01T06:40:34;22.12;64.50
64034;SHT31;50280;49.864;8.638;2022-08-01T06:43:25;22.27;64.41
64034;SHT31;50280;49.864;8.638;2022-08-01T06:46:16;22.40;63.67
64034;SHT31;50280;49.864;8.638;2022-08-01T06:49:07;22.54;63.37
64034;SHT31;50280;49.864;8.638;2022-08-01T06:51:58;22.62;62.85
64034;SHT31;50280;49.864;8.638;2022-08-01T06:54:49;22.71;62.82
64034;SHT31;50280;49.864;8.638;2022-08-01T06:57:50;22.76;62.56
64034;SHT31;50280;49.864;8.638;2022-08-01T07:00:43;22.82;62.32
64034;SHT31;50280;49.864;8.638;2022-08-01T07:03:35;22.84;62.52
64034;SHT31;50280;49.864;8.638;2022-08-01T07:06:27;22.89;61.79
64034;SHT31;50280;49.864;8.638;2022-08-01T07:09:18;22.88;62.01
64034;SHT31;50280;49.864;8.638;2022-08-01T07:12:09;22.91;62.05
64034;SHT31;50280;49.864;8.638;2022-08-01T07:15:04;22.99;62.09
64034;SHT31;50280;49.864;8.638;2022-08-01T07:17:56;23.13;61.90
64034;SHT31;50280;49.864;8.638;2022-08-01T07:20:48;23.26;61.12
64034;SHT31;50280;49.864;8.638;2022-08-01T07:23:39;23.39;60.86
64034;SHT31;50280;49.864;8.638;2022-08-01T07:26:30;23.51;60.66
64034;SHT31;50280;49.864;8.638;2022-08-01T07:29:22;23.67;60.11
64034;SHT31;50280;49.864;8.638;2022-08-01T07:32:16;23.81;59.35
64034;SHT31;50280;49.864;8.638;2022-08-01T07:35:08;23.99;58.38
64034;SHT31;50280;49.864;8.638;2022-08-01T07:37:59;24.20;58.34
64034;SHT31;50280;49.864;8.638;2022-08-01T07:40:51;24.33;57.43
64034;SHT31;50280;49.864;8.638;2022-08-01T07:43:42;24.26;57.40
64034;SHT31;50280;49.864;8.638;2022-08-01T07:46:33;24.22;57.84
64034;SHT31;50280;49.864;8.638;2022-08-01T07:49:26;24.41;57.74
64034;SHT31;50280;49.864;8.638;2022-08-01T07:52:17;24.72;56.04
64034;SHT31;50280;49.864;8.638;2022-08-01T07:55:09;24.88;55.68
64034;SHT31;50280;49.864;8.638;2022-08-01T07:58:01;25.05;55.06
64034;SHT31;50280;49.864;8.638;2022-08-01T08:00:52;25.02;55.16
64034;SHT31;50280;49.864;8.638;2022-08-01T08:03:44;25.12;55.25
64034;SHT31;50280;49.864;8.638;2022-08-01T08:06:36;25.33;54.19
64034;SHT31;50280;49.864;8.638;2022-08-01T08:09:27;25.37;54.45
64034;SHT31;50280;49.864;8.638;2022-08-01T08:12:18;25.46;54.00
64034;SHT31;50280;49.864;8.638;2022-08-01T08:15:10;25.53;53.80
64034;SHT31;50280;49.864;8.638;2022-08-01T08:18:02;25.60;53.72
64034;SHT31;50280;49.864;8.638;2022-08-01T08:20:54;25.74;53.20
64034;SHT31;50280;49.864;8.638;2022-08-01T08:23:47;25.93;52.69
64034;SHT31;50280;49.864;8.638;2022-08-01T08:26:38;25.91;53.24
64034;SHT31;50280;49.864;8.638;2022-08-01T08:29:30;25.96;52.20
64034;SHT31;50280;49.864;8.638;2022-08-01T08:32:21;25.84;52.24
64034;SHT31;50280;49.864;8.638;2022-08-01T08:35:13;25.71;53.09
64034;SHT31;50280;49.864;8.638;2022-08-01T08:38:04;25.73;54.02
64034;SHT31;50280;49.864;8.638;2022-08-01T08:40:56;25.81;53.04
64034;SHT31;50280;49.864;8.638;2022-08-01T08:43:48;25.84;52.78
64034;SHT31;50280;49.864;8.638;2022-08-01T08:46:41;25.77;52.93
64034;SHT31;50280;49.864;8.638;2022-08-01T08:49:35;25.73;52.99
64034;SHT31;50280;49.864;8.638;2022-08-01T08:52:28;25.67;53.24
64034;SHT31;50280;49.864;8.638;2022-08-01T08:55:26;25.61;53.33
64034;SHT31;50280;49.864;8.638;2022-08-01T08:58:22;25.43;53.76
64034;SHT31;50280;49.864;8.638;2022-08-01T09:01:16;25.16;54.24
64034;SHT31;50280;49.864;8.638;2022-08-01T09:04:08;24.96;55.08
64034;SHT31;50280;49.864;8.638;2022-08-01T09:07:00;24.89;55.85
64034;SHT31;50280;49.864;8.638;2022-08-01T09:09:55;24.92;55.52
64034;SHT31;50280;49.864;8.638;2022-08-01T09:13:06;25.06;55.12
64034;SHT31;50280;49.864;8.638;2022-08-01T09:16:01;25.36;54.08
64034;SHT31;50280;49.864;8.638;2022-08-01T09:19:06;25.46;53.91
64034;SHT31;50280;49.864;8.638;2022-08-01T09:22:03;25.63;54.02
64034;SHT31;50280;49.864;8.638;2022-08-01T09:24:58;26.10;52.70
64034;SHT31;50280;49.864;8.638;2022-08-01T09:28:02;26.23;51.37
64034;SHT31;50280;49.864;8.638;2022-08-01T09:30:56;26.19;51.74
64034;SHT31;50280;49.864;8.638;2022-08-01T09:33:51;26.20;51.56
64034;SHT31;50280;49.864;8.638;2022-08-01T09:36:47;26.16;51.10
64034;SHT31;50280;49.864;8.638;2022-08-01T09:39:40;26.13;51.54
64034;SHT31;50280;49.864;8.638;2022-08-01T09:42:32;26.22;51.46
64034;SHT31;50280;49.864;8.638;2022-08-01T09:45:33;26.47;51.33
64034;SHT31;50280;49.864;8.638;2022-08-01T09:48:25;26.71;50.15
64034;SHT31;50280;49.864;8.638;2022-08-01T09:51:27;26.77;49.16
64034;SHT31;50280;49.864;8.638;2022-08-01T09:54:29;26.67;49.39
64034;SHT31;50280;49.864;8.638;2022-08-01T09:57:24;26.67;50.12
64034;SHT31;50280;49.864;8.638;2022-08-01T09:59:59;26.74;49.71
64034;SHT31;50280;49.864;8.638;2022-08-01T10:19:07;28.56;45.97
64034;SHT31;50280;49.864;8.638;2022-08-01T10:21:40;29.12;45.00
64034;SHT31;50280;49.864;8.638;2022-08-01T10:24:15;29.04;43.89
64034;SHT31;50280;49.864;8.638;2022-08-01T10:26:51;29.27;43.54
64034;SHT31;50280;49.864;8.638;2022-08-01T10:29:31;28.79;44.23
64034;SHT31;50280;49.864;8.638;2022-08-01T10:32:11;28.61;44.19
64034;SHT31;50280;49.864;8.638;2022-08-01T10:34:45;28.98;43.77
64034;SHT31;50280;49.864;8.638;2022-08-01T10:37:18;29.20;43.82
64034;SHT31;50280;49.864;8.638;2022-08-01T10:39:52;29.56;42.84
64034;SHT31;50280;49.864;8.638;2022-08-01T10:42:26;30.00;42.29
64034;SHT31;50280;49.864;8.638;2022-08-01T10:44:59;30.15;41.71
64034;SHT31;50280;49.864;8.638;2022-08-01T10:47:38;30.18;40.19
64034;SHT31;50280;49.864;8.638;2022-08-01T10:50:27;29.77;40.64
64034;SHT31;50280;49.864;8.638;2022-08-01T10:53:10;29.37;41.52
64034;SHT31;50280;49.864;8.638;2022-08-01T10:55:47;28.92;42.48
64034;SHT31;50280;49.864;8.638;2022-08-01T10:58:23;28.49;43.59
64034;SHT31;50280;49.864;8.638;2022-08-01T11:01:14;28.31;44.25
64034;SHT31;50280;49.864;8.638;2022-08-01T11:04:05;28.84;43.58
64034;SHT31;50280;49.864;8.638;2022-08-01T11:07:04;29.73;42.85
64034;SHT31;50280;49.864;8.638;2022-08-01T11:09:40;30.59;41.15
64034;SHT31;50280;49.864;8.638;2022-08-01T11:12:17;31.15;39.75
64034;SHT31;50280;49.864;8.638;2022-08-01T11:15:19;31.67;37.99
64034;SHT31;50280;49.864;8.638;2022-08-01T11:17:57;31.85;37.65
64034;SHT31;50280;49.864;8.638;2022-08-01T11:20:33;31.66;37.74
64034;SHT31;50280;49.864;8.638;2022-08-01T11:23:18;31.18;38.12
64034;SHT31;50280;49.864;8.638;2022-08-01T11:26:07;31.45;37.60
64034;SHT31;50280;49.864;8.638;2022-08-01T11:31:45;31.98;36.56
64034;SHT31;50280;49.864;8.638;2022-08-01T11:34:17;32.09;36.10
64034;SHT31;50280;49.864;8.638;2022-08-01T11:37:25;32.01;35.86
64034;SHT31;50280;49.864;8.638;2022-08-01T11:40:26;31.70;37.12
64034;SHT31;50280;49.864;8.638;2022-08-01T11:43:18;31.56;36.49
64034;SHT31;50280;49.864;8.638;2022-08-01T11:45:58;31.47;36.92
64034;SHT31;50280;49.864;8.638;2022-08-01T11:48:32;31.45;37.15
64034;SHT31;50280;49.864;8.638;2022-08-01T11:51:15;31.56;37.55
64034;SHT31;50280;49.864;8.638;2022-08-01T11:53:49;31.60;37.09
64034;SHT31;50280;49.864;8.638;2022-08-01T11:56:24;31.63;36.54
64034;SHT31;50280;49.864;8.638;2022-08-01T11:58:58;31.81;36.51
64034;SHT31;50280;49.864;8.638;2022-08-01T12:01:31;32.15;35.45
64034;SHT31;50280;49.864;8.638;2022-08-01T12:04:04;32.07;35.21
64034;SHT31;50280;49.864;8.638;2022-08-01T12:06:36;31.84;35.86
64034;SHT31;50280;49.864;8.638;2022-08-01T12:09:16;31.95;35.69
64034;SHT31;50280;49.864;8.638;2022-08-01T12:11:52;32.36;34.42
64034;SHT31;50280;49.864;8.638;2022-08-01T12:14:24;32.63;34.52
64034;SHT31;50280;49.864;8.638;2022-08-01T12:16:57;32.86;34.09
64034;SHT31;50280;49.864;8.638;2022-08-01T12:19:30;33.15;34.03
64034;SHT31;50280;49.864;8.638;2022-08-01T12:22:10;33.60;32.87
64034;SHT31;50280;49.864;8.638;2022-08-01T12:24:44;33.97;31.81
64034;SHT31;50280;49.864;8.638;2022-08-01T12:27:26;34.37;31.16
64034;SHT31;50280;49.864;8.638;2022-08-01T12:30:04;34.44;31.15
64034;SHT31;50280;49.864;8.638;2022-08-01T12:32:40;34.48;30.32
64034;SHT31;50280;49.864;8.638;2022-08-01T12:35:17;34.20;31.25
64034;SHT31;50280;49.864;8.638;2022-08-01T12:37:53;33.90;32.23
64034;SHT31;50280;49.864;8.638;2022-08-01T12:40:30;33.60;32.61
64034;SHT31;50280;49.864;8.638;2022-08-01T12:43:08;33.26;33.11
64034;SHT31;50280;49.864;8.638;2022-08-01T12:45:43;32.88;33.46
64034;SHT31;50280;49.864;8.638;2022-08-01T12:48:19;32.57;34.25
64034;SHT31;50280;49.864;8.638;2022-08-01T12:50:52;32.39;34.14
64034;SHT31;50280;49.864;8.638;2022-08-01T12:53:33;32.21;34.99
64034;SHT31;50280;49.864;8.638;2022-08-01T12:56:07;31.92;35.65
64034;SHT31;50280;49.864;8.638;2022-08-01T12:58:42;31.63;36.09
64034;SHT31;50280;49.864;8.638;2022-08-01T13:01:14;31.70;35.56
64034;SHT31;50280;49.864;8.638;2022-08-01T13:03:57;31.62;35.76
64034;SHT31;50280;49.864;8.638;2022-08-01T13:06:32;31.28;36.40
64034;SHT31;50280;49.864;8.638;2022-08-01T13:09:05;30.96;36.91
64034;SHT31;50280;49.864;8.638;2022-08-01T13:11:38;30.95;37.04
64034;SHT31;50280;49.864;8.638;2022-08-01T13:14:28;31.19;37.15
64034;SHT31;50280;49.864;8.638;2022-08-01T13:17:01;31.11;37.12
64034;SHT31;50280;49.864;8.638;2022-08-01T13:19:42;31.09;37.14
64034;SHT31;50280;49.864;8.638;2022-08-01T13:22:15;31.08;36.92
64034;SHT31;50280;49.864;8.638;2022-08-01T13:24:48;31.26;36.61
64034;SHT31;50280;49.864;8.638;2022-08-01T13:27:21;31.47;36.18
64034;SHT31;50280;49.864;8.638;2022-08-01T13:30:10;31.69;36.13
64034;SHT31;50280;49.864;8.638;2022-08-01T13:32:44;31.78;35.30
64034;SHT31;50280;49.864;8.638;2022-08-01T13:35:29;31.77;35.19
64034;SHT31;50280;49.864;8.638;2022-08-01T13:38:02;31.51;35.84
64034;SHT31;50280;49.864;8.638;2022-08-01T13:40:35;31.23;36.47
64034;SHT31;50280;49.864;8.638;2022-08-01T13:43:07;31.02;36.52
64034;SHT31;50280;49.864;8.638;2022-08-01T13:45:41;30.63;37.40
64034;SHT31;50280;49.864;8.638;2022-08-01T13:48:13;30.50;37.49
64034;SHT31;50280;49.864;8.638;2022-08-01T13:50:46;30.39;37.64
64034;SHT31;50280;49.864;8.638;2022-08-01T13:53:18;30.26;37.73
64034;SHT31;50280;49.864;8.638;2022-08-01T13:55:51;30.15;38.32
64034;SHT31;50280;49.864;8.638;2022-08-01T13:58:23;30.19;38.87
64034;SHT31;50280;49.864;8.638;2022-08-01T14:00:57;30.36;37.77
64034;SHT31;50280;49.864;8.638;2022-08-01T14:03:30;30.32;37.62
64034;SHT31;50280;49.864;8.638;2022-08-01T14:06:02;30.19;37.59
64034;SHT31;50280;49.864;8.638;2022-08-01T14:08:35;30.16;37.56
64034;SHT31;50280;49.864;8.638;2022-08-01T14:11:08;30.23;37.30
64034;SHT31;50280;49.864;8.638;2022-08-01T14:13:41;30.52;37.07
64034;SHT31;50280;49.864;8.638;2022-08-01T14:16:14;31.01;36.58
64034;SHT31;50280;49.864;8.638;2022-08-01T14:18:48;31.49;35.29
64034;SHT31;50280;49.864;8.638;2022-08-01T14:21:21;31.69;34.86
64034;SHT31;50280;49.864;8.638;2022-08-01T14:23:53;31.70;34.59
64034;SHT31;50280;49.864;8.638;2022-08-01T14:26:26;31.43;35.43
64034;SHT31;50280;49.864;8.638;2022-08-01T14:28:58;31.22;35.77
64034;SHT31;50280;49.864;8.638;2022-08-01T14:31:32;30.98;36.30
64034;SHT31;50280;49.864;8.638;2022-08-01T14:34:04;30.66;36.40
64034;SHT31;50280;49.864;8.638;2022-08-01T14:36:37;30.26;37.01
64034;SHT31;50280;49.864;8.638;2022-08-01T14:39:10;30.02;37.47
64034;SHT31;50280;49.864;8.638;2022-08-01T14:41:42;29.82;37.88
64034;SHT31;50280;49.864;8.638;2022-08-01T14:44:14;29.60;38.13
64034;SHT31;50280;49.864;8.638;2022-08-01T14:46:48;29.47;38.46
64034;SHT31;50280;49.864;8.638;2022-08-01T14:49:21;29.33;38.67
64034;SHT31;50280;49.864;8.638;2022-08-01T14:51:53;29.23;39.04
64034;SHT31;50280;49.864;8.638;2022-08-01T14:54:25;29.18;39.70
64034;SHT31;50280;49.864;8.638;2022-08-01T14:56:58;29.04;39.90
64034;SHT31;50280;49.864;8.638;2022-08-01T14:59:31;28.87;40.41
64034;SHT31;50280;49.864;8.638;2022-08-01T15:02:04;28.77;40.79
64034;SHT31;50280;49.864;8.638;2022-08-01T15:04:37;28.71;41.04
64034;SHT31;50280;49.864;8.638;2022-08-01T15:07:09;28.72;40.57
64034;SHT31;50280;49.864;8.638;2022-08-01T15:09:43;28.64;40.77
64034;SHT31;50280;49.864;8.638;2022-08-01T15:12:16;28.54;40.91
64034;SHT31;50280;49.864;8.638;2022-08-01T15:14:49;28.39;41.27
64034;SHT31;50280;49.864;8.638;2022-08-01T15:17:23;28.33;41.84
64034;SHT31;50280;49.864;8.638;2022-08-01T15:19:59;28.33;41.98
64034;SHT31;50280;49.864;8.638;2022-08-01T15:22:35;28.29;42.34
64034;SHT31;50280;49.864;8.638;2022-08-01T15:25:07;28.25;42.26
64034;SHT31;50280;49.864;8.638;2022-08-01T15:27:40;28.19;42.53
64034;SHT31;50280;49.864;8.638;2022-08-01T15:30:13;28.09;43.21
64034;SHT31;50280;49.864;8.638;2022-08-01T15:32:46;27.95;45.77
64034;SHT31;50280;49.864;8.638;2022-08-01T15:35:19;27.68;49.73
64034;SHT31;50280;49.864;8.638;2022-08-01T15:37:51;27.08;54.38
64034;SHT31;50280;49.864;8.638;2022-08-01T15:40:24;26.60;55.62
64034;SHT31;50280;49.864;8.638;2022-08-01T15:42:57;26.23;53.16
64034;SHT31;50280;49.864;8.638;2022-08-01T15:45:29;25.91;53.42
64034;SHT31;50280;49.864;8.638;2022-08-01T15:48:03;25.57;58.56
64034;SHT31;50280;49.864;8.638;2022-08-01T15:50:36;25.19;60.09
64034;SHT31;50280;49.864;8.638;2022-08-01T15:53:08;24.91;62.84
64034;SHT31;50280;49.864;8.638;2022-08-01T15:55:41;24.61;63.51
64034;SHT31;50280;49.864;8.638;2022-08-01T15:58:14;24.40;64.47
64034;SHT31;50280;49.864;8.638;2022-08-01T16:00:47;24.19;64.38
64034;SHT31;50280;49.864;8.638;2022-08-01T16:03:21;24.08;64.07
64034;SHT31;50280;49.864;8.638;2022-08-01T16:05:53;23.98;64.58
64034;SHT31;50280;49.864;8.638;2022-08-01T16:08:26;23.92;63.58
64034;SHT31;50280;49.864;8.638;2022-08-01T16:10:58;23.90;63.30
64034;SHT31;50280;49.864;8.638;2022-08-01T16:13:31;23.86;63.80
64034;SHT31;50280;49.864;8.638;2022-08-01T16:16:04;23.82;64.80
64034;SHT31;50280;49.864;8.638;2022-08-01T16:18:41;23.82;64.63
64034;SHT31;50280;49.864;8.638;2022-08-01T16:21:14;23.84;63.65
64034;SHT31;50280;49.864;8.638;2022-08-01T16:23:46;23.86;62.91
64034;SHT31;50280;49.864;8.638;2022-08-01T16:26:19;23.94;63.95
64034;SHT31;50280;49.864;8.638;2022-08-01T16:28:52;23.94;64.95
64034;SHT31;50280;49.864;8.638;2022-08-01T16:31:24;23.96;71.49
64034;SHT31;50280;49.864;8.638;2022-08-01T16:33:58;23.90;72.78
64034;SHT31;50280;49.864;8.638;2022-08-01T16:36:31;23.75;71.75
64034;SHT31;50280;49.864;8.638;2022-08-01T16:39:04;23.55;72.04
64034;SHT31;50280;49.864;8.638;2022-08-01T16:41:36;23.37;71.24
64034;SHT31;50280;49.864;8.638;2022-08-01T16:44:09;23.28;71.82
64034;SHT31;50280;49.864;8.638;2022-08-01T16:46:41;23.22;72.17
64034;SHT31;50280;49.864;8.638;2022-08-01T16:49:15;23.16;71.51
64034;SHT31;50280;49.864;8.638;2022-08-01T16:51:48;23.14;72.48
64034;SHT31;50280;49.864;8.638;2022-08-01T16:54:20;23.17;71.79
64034;SHT31;50280;49.864;8.638;2022-08-01T16:56:53;23.16;71.85
64034;SHT31;50280;49.864;8.638;2022-08-01T16:59:26;23.20;70.74
64034;SHT31;50280;49.864;8.638;2022-08-01T17:01:58;23.27;72.47
64034;SHT31;50280;49.864;8.638;2022-08-01T17:04:33;23.31;71.64
64034;SHT31;50280;49.864;8.638;2022-08-01T17:07:05;23.31;72.59
64034;SHT31;50280;49.864;8.638;2022-08-01T17:09:38;23.36;72.05
64034;SHT31;50280;49.864;8.638;2022-08-01T17:12:10;23.37;73.73
64034;SHT31;50280;49.864;8.638;2022-08-01T17:14:43;23.36;74.26
64034;SHT31;50280;49.864;8.638;2022-08-01T17:17:15;23.44;75.22
64034;SHT31;50280;49.864;8.638;2022-08-01T17:19:50;23.48;75.09
64034;SHT31;50280;49.864;8.638;2022-08-01T17:22:23;23.53;74.63
64034;SHT31;50280;49.864;8.638;2022-08-01T17:24:55;23.54;74.80
64034;SHT31;50280;49.864;8.638;2022-08-01T17:27:28;23.58;73.30
64034;SHT31;50280;49.864;8.638;2022-08-01T17:30:00;23.64;73.93
64034;SHT31;50280;49.864;8.638;2022-08-01T17:32:33;23.68;74.47
64034;SHT31;50280;49.864;8.638;2022-08-01T17:35:08;23.74;73.32
64034;SHT31;50280;49.864;8.638;2022-08-01T17:37:41;23.77;73.17
64034;SHT31;50280;49.864;8.638;2022-08-01T17:40:15;23.82;73.33
64034;SHT31;50280;49.864;8.638;2022-08-01T17:42:47;23.85;73.41
64034;SHT31;50280;49.864;8.638;2022-08-01T17:45:20;23.89;74.27
64034;SHT31;50280;49.864;8.638;2022-08-01T17:47:53;23.92;73.69
64034;SHT31;50280;49.864;8.638;2022-08-01T17:50:26;23.95;74.04